Afrodite — CURM3 — position and weather

sailwx.info

Track history (hours):
 
Tides and Currents Weather Stations Pressure Air Temp Water Temp Dewpoint Dewpoint Depression Visibility Wind Speed Wind Dir Waves Ship Positions

Afrodite

Last reported at 2015-Jul-30 22:30 UTC. Time now 2015-Aug-02 16:27 UTC.
Position N 39°20' W 009°25'.

Length 26 m.

Type: Fishing. MMSI: 263500170.

Date/timePositionNaut miles runAvg speedWind from/ knotsBaromVisibWave heightAir tempDewpointWater temp
2015-Jul-30 22:30N 39°20' W 009°25'2 1.1
2015-Jul-30 21:08N 39°20' W 009°27'5 6.4
2015-Jul-30 20:17N 39°23' W 009°22'2 0.3
2015-Jul-30 13:31N 39°21' W 009°22'0 0.0
2015-Jul-30 12:33N 39°21' W 009°22'1 0.3
2015-Jul-30 07:33N 39°21' W 009°24'2 2.4
2015-Jul-30 06:33N 39°23' W 009°22'1 0.2
2015-Jul-29 22:07N 39°21' W 009°22'3 6.1
2015-Jul-29 21:33N 39°18' W 009°23'3 2.7
2015-Jul-29 20:33N 39°15' W 009°23'6 4.7
2015-Jul-29 19:15N 39°21' W 009°22'3 0.2
2015-Jul-29 06:33N 39°18' W 009°24'5 4.7
2015-Jul-29 05:33N 39°14' W 009°22'7 1.2
2015-Jul-28 23:31N 39°21' W 009°23'8 8.6
2015-Jul-28 22:33N 39°13' W 009°26'5 5.0
2015-Jul-28 21:33N 39°08' W 009°29'0 0.5
2015-Jul-28 20:33N 39°09' W 009°29'3 3.2
2015-Jul-28 19:33N 39°06' W 009°27'16 7.7
2015-Jul-28 17:30N 39°21' W 009°22'0 0.0
2015-Jul-28 16:32N 39°21' W 009°22'3 3.3
2015-Jul-28 15:30N 39°18' W 009°24'5 4.9
2015-Jul-28 14:33N 39°14' W 009°25'3 2.8
2015-Jul-28 13:33N 39°12' W 009°22'1 1.0
2015-Jul-28 12:33N 39°13' W 009°22'9 8.4
2015-Jul-28 11:31N 39°21' W 009°22'0 0.0
2015-Jul-27 17:33N 39°21' W 009°22'3 3.5
2015-Jul-27 16:33N 39°18' W 009°23'6 5.8
2015-Jul-27 15:33N 39°12' W 009°25'0 0.2
2015-Jul-27 14:33N 39°12' W 009°25'3 3.2
2015-Jul-27 13:33N 39°16' W 009°24'2 2.4
2015-Jul-27 12:33N 39°18' W 009°24'4 3.6
2015-Jul-27 11:33N 39°21' W 009°22'  
2015-Jul-25 00:05N 39°21' W 009°22'0 0.0
2015-Jul-24 23:31N 39°21' W 009°22'8 8.2
2015-Jul-24 22:33N 39°14' W 009°25'9 8.5
2015-Jul-24 21:33N 39°06' W 009°29'0 0.3
2015-Jul-24 20:34N 39°06' W 009°29'6 5.9
2015-Jul-24 19:33N 39°11' W 009°25'10 9.0
2015-Jul-24 18:23N 39°21' W 009°22'0 0.0
2015-Jul-24 17:33N 39°21' W 009°22'0 0.0
2015-Jul-23 23:33N 39°21' W 009°22'4 3.8
2015-Jul-23 22:33N 39°18' W 009°23'10 9.9
2015-Jul-23 21:33N 39°08' W 009°27'0 0.0
2015-Jul-23 20:32N 39°08' W 009°27'4 3.6
2015-Jul-23 19:33N 39°12' W 009°26'10 9.1
2015-Jul-23 18:29N 39°21' W 009°22'0 0.0
2015-Jul-23 00:09N 39°21' W 009°22'0 0.0
2015-Jul-22 23:32N 39°21' W 009°22'6 6.2
2015-Jul-22 22:33N 39°15' W 009°24'9 9.3
2015-Jul-22 21:32N 39°06' W 009°27'1 0.6
2015-Jul-22 20:33N 39°07' W 009°27'6 6.2
2015-Jul-22 19:33N 39°13' W 009°26'9 8.4
2015-Jul-22 18:30N 39°21' W 009°22'0 0.0
2015-Jul-22 17:33N 39°21' W 009°22'2 0.1
2015-Jul-21 23:33N 39°19' W 009°23'5 5.3
2015-Jul-21 22:33N 39°14' W 009°23'3 2.5
2015-Jul-21 21:33N 39°11' W 009°25'2 1.9
2015-Jul-21 20:33N 39°10' W 009°26'2 2.1
2015-Jul-21 19:33N 39°12' W 009°26'10 8.7
2015-Jul-21 18:26N 39°21' W 009°22'0 0.0
2015-Jul-21 17:32N 39°21' W 009°22'0 0.0
2015-Jul-21 00:31N 39°21' W 009°22'2 1.6
2015-Jul-20 23:33N 39°20' W 009°22'6 6.4
2015-Jul-20 22:33N 39°14' W 009°22'  
Track history (hours):
 
Tides and Currents Weather Stations Pressure Air Temp Water Temp Dewpoint Dewpoint Depression Visibility Wind Speed Wind Dir Waves Ship Positions

Afrodite

Last reported at 2015-Jul-30 22:30 UTC. Time now 2015-Aug-02 16:27 UTC.
Position N 39°20' W 009°25'.

Length 26 m.

Type: Fishing. MMSI: 263500170.

Date/timePositionNaut miles runAvg speedWind from/ knotsBaromVisibWave heightAir tempDewpointWater temp
2015-Jul-30 22:30N 39°20' W 009°25'2 1.1
2015-Jul-30 21:08N 39°20' W 009°27'5 6.4
2015-Jul-30 20:17N 39°23' W 009°22'2 0.3
2015-Jul-30 13:31N 39°21' W 009°22'0 0.0
2015-Jul-30 12:33N 39°21' W 009°22'1 0.3
2015-Jul-30 07:33N 39°21' W 009°24'2 2.4
2015-Jul-30 06:33N 39°23' W 009°22'1 0.2
2015-Jul-29 22:07N 39°21' W 009°22'3 6.1
2015-Jul-29 21:33N 39°18' W 009°23'3 2.7
2015-Jul-29 20:33N 39°15' W 009°23'6 4.7
2015-Jul-29 19:15N 39°21' W 009°22'3 0.2
2015-Jul-29 06:33N 39°18' W 009°24'5 4.7
2015-Jul-29 05:33N 39°14' W 009°22'7 1.2
2015-Jul-28 23:31N 39°21' W 009°23'8 8.6
2015-Jul-28 22:33N 39°13' W 009°26'5 5.0
2015-Jul-28 21:33N 39°08' W 009°29'0 0.5
2015-Jul-28 20:33N 39°09' W 009°29'3 3.2
2015-Jul-28 19:33N 39°06' W 009°27'16 7.7
2015-Jul-28 17:30N 39°21' W 009°22'0 0.0
2015-Jul-28 16:32N 39°21' W 009°22'3 3.3
2015-Jul-28 15:30N 39°18' W 009°24'5 4.9
2015-Jul-28 14:33N 39°14' W 009°25'3 2.8
2015-Jul-28 13:33N 39°12' W 009°22'1 1.0
2015-Jul-28 12:33N 39°13' W 009°22'9 8.4
2015-Jul-28 11:31N 39°21' W 009°22'0 0.0
2015-Jul-27 17:33N 39°21' W 009°22'3 3.5
2015-Jul-27 16:33N 39°18' W 009°23'6 5.8
2015-Jul-27 15:33N 39°12' W 009°25'0 0.2
2015-Jul-27 14:33N 39°12' W 009°25'3 3.2
2015-Jul-27 13:33N 39°16' W 009°24'2 2.4
2015-Jul-27 12:33N 39°18' W 009°24'4 3.6
2015-Jul-27 11:33N 39°21' W 009°22'  
2015-Jul-25 00:05N 39°21' W 009°22'0 0.0
2015-Jul-24 23:31N 39°21' W 009°22'8 8.2
2015-Jul-24 22:33N 39°14' W 009°25'9 8.5
2015-Jul-24 21:33N 39°06' W 009°29'0 0.3
2015-Jul-24 20:34N 39°06' W 009°29'6 5.9
2015-Jul-24 19:33N 39°11' W 009°25'10 9.0
2015-Jul-24 18:23N 39°21' W 009°22'0 0.0
2015-Jul-24 17:33N 39°21' W 009°22'0 0.0
2015-Jul-23 23:33N 39°21' W 009°22'4 3.8
2015-Jul-23 22:33N 39°18' W 009°23'10 9.9
2015-Jul-23 21:33N 39°08' W 009°27'0 0.0
2015-Jul-23 20:32N 39°08' W 009°27'4 3.6
2015-Jul-23 19:33N 39°12' W 009°26'10 9.1
2015-Jul-23 18:29N 39°21' W 009°22'0 0.0
2015-Jul-23 00:09N 39°21' W 009°22'0 0.0
2015-Jul-22 23:32N 39°21' W 009°22'6 6.2
2015-Jul-22 22:33N 39°15' W 009°24'9 9.3
2015-Jul-22 21:32N 39°06' W 009°27'1 0.6
2015-Jul-22 20:33N 39°07' W 009°27'6 6.2
2015-Jul-22 19:33N 39°13' W 009°26'9 8.4
2015-Jul-22 18:30N 39°21' W 009°22'0 0.0
2015-Jul-22 17:33N 39°21' W 009°22'2 0.1
2015-Jul-21 23:33N 39°19' W 009°23'5 5.3
2015-Jul-21 22:33N 39°14' W 009°23'3 2.5
2015-Jul-21 21:33N 39°11' W 009°25'2 1.9
2015-Jul-21 20:33N 39°10' W 009°26'2 2.1
2015-Jul-21 19:33N 39°12' W 009°26'10 8.7
2015-Jul-21 18:26N 39°21' W 009°22'0 0.0
2015-Jul-21 17:32N 39°21' W 009°22'0 0.0
2015-Jul-21 00:31N 39°21' W 009°22'2 1.6
2015-Jul-20 23:33N 39°20' W 009°22'6 6.4
2015-Jul-20 22:33N 39°14' W 009°22'  

Dump ship's entire track history